Terminal Aerodrome Forecast
Issued by NWS El Paso, TX

Home | Current Version | Previous Version | Text Only | Print | Product List | Glossary On
Versions: 1 2 3 4 5 6 7 8 9 10 11 12 13 14 15 16
000
FTUS44 KEPZ 241120
TAFELP
TAF
KELP 241120Z 2412/2512 07012KT P6SM SCT060 BKN120
     FM241800 10015G25KT P6SM SCT060 BKN120
     FM242200 13015G25KT P6SM VCTS BKN050CB OVC100
      TEMPO 2502/2506 VRB25G40KT 1SM TSRA BKN030CB=

USA.gov is the U.S. government's official web portal to all federal, state and local government web resources and services.